Time;durP1;ratioP1;P1;durP2;ratioP2;P2;SDS_P1;SDS_P2;PMS_P1;PMS_P2;Temp;Humidity;BMP_temperature;BMP_pressure;BME280_temperature;BME280_humidity;BME280_pressure;Samples;Min_cycle;Max_cycle;Signal;HPM_P1;HPM_P2
2021/12/05 00:24:19;;;;;;;0.10;0.10;;;;;;;;;;5091712;28;20127;-91
2021/12/05 00:26:49;;;;;;;0.10;0.10;;;;;;;;;;5088881;28;20013;-92
2021/12/05 00:29:27;;;;;;;0.57;0.57;;;;;;;;;;5093369;28;20024;-92
2021/12/05 00:32:00;;;;;;;0.28;0.28;;;;;;;;;;5093177;28;20032;-93
2021/12/05 01:04:26;;;;;;;0.10;0.10;;;;;;;;;;5095717;28;20450;-93
2021/12/05 01:09:23;;;;;;;0.10;0.10;;;;;;;;;;5095983;28;20040;-92
2021/12/05 01:14:37;;;;;;;0.17;0.17;;;;;;;;;;5095798;28;20039;-92
2021/12/05 01:17:04;;;;;;;0.10;0.10;;;;;;;;;;5090098;28;20078;-91
2021/12/05 01:19:31;;;;;;;0.10;0.10;;;;;;;;;;5092588;28;20028;-94
2021/12/05 01:22:00;;;;;;;0.10;0.10;;;;;;;;;;5092443;28;20050;-92
2021/12/05 01:39:35;;;;;;;0.00;0.00;;;;;;;;;;5095177;28;20064;-93
2021/12/05 01:52:55;;;;;;;0.10;0.10;;;;;;;;;;5063514;28;20032;-92
2021/12/05 02:42:36;;;;;;;0.00;0.00;;;;;;;;;;5094200;28;20052;-91
2021/12/05 02:45:04;;;;;;;0.10;0.10;;;;;;;;;;5088584;28;20038;-92
2021/12/05 02:47:30;;;;;;;0.10;0.10;;;;;;;;;;5086481;28;20032;-92
2021/12/05 02:49:57;;;;;;;0.10;0.10;;;;;;;;;;5090852;28;20020;-94
2021/12/05 02:52:26;;;;;;;0.10;0.10;;;;;;;;;;5089007;28;20111;-93
2021/12/05 02:54:53;;;;;;;0.10;0.10;;;;;;;;;;5095270;28;20032;-92
2021/12/05 02:57:31;;;;;;;0.10;0.10;;;;;;;;;;5094916;28;20012;-92
2021/12/05 02:59:58;;;;;;;0.10;0.10;;;;;;;;;;5095308;28;20048;-92
2021/12/05 03:02:39;;;;;;;0.10;0.10;;;;;;;;;;5091004;28;20032;-92
2021/12/05 03:05:09;;;;;;;0.10;0.10;;;;;;;;;;5094216;28;20056;-92
2021/12/05 03:07:39;;;;;;;0.10;0.10;;;;;;;;;;5090545;28;20086;-93
2021/12/05 03:10:05;;;;;;;0.10;0.10;;;;;;;;;;5084732;28;20023;-92
2021/12/05 03:12:33;;;;;;;0.10;0.10;;;;;;;;;;5088796;28;20384;-91
2021/12/05 03:15:07;;;;;;;0.10;0.10;;;;;;;;;;5091125;28;20028;-92
2021/12/05 03:17:32;;;;;;;0.10;0.10;;;;;;;;;;5090239;28;20028;-92
2021/12/05 03:19:57;;;;;;;0.10;0.10;;;;;;;;;;5088912;28;20165;-93
2021/12/05 03:22:23;;;;;;;0.10;0.10;;;;;;;;;;5088912;28;20025;-93
2021/12/05 03:24:48;;;;;;;1.08;1.08;;;;;;;;;;5094696;28;20076;-91
2021/12/05 03:27:14;;;;;;;0.10;0.10;;;;;;;;;;5090445;28;20036;-93
2021/12/05 03:29:39;;;;;;;0.10;0.10;;;;;;;;;;5090542;28;20015;-91
2021/12/05 03:32:04;;;;;;;0.10;0.10;;;;;;;;;;5090167;28;20036;-92
2021/12/05 03:34:30;;;;;;;0.10;0.10;;;;;;;;;;5090121;28;20078;-91
2021/12/05 03:36:56;;;;;;;0.10;0.10;;;;;;;;;;5094445;28;20015;-92
2021/12/05 03:39:22;;;;;;;0.10;0.10;;;;;;;;;;5094444;28;20371;-94
2021/12/05 03:41:47;;;;;;;0.10;0.10;;;;;;;;;;5094315;28;20043;-93
2021/12/05 03:44:14;;;;;;;0.10;0.10;;;;;;;;;;5088791;28;20035;-94
2021/12/05 03:46:39;;;;;;;0.10;0.10;;;;;;;;;;5093023;28;20464;-93
2021/12/05 03:49:06;;;;;;;0.40;0.40;;;;;;;;;;5092946;28;20089;-92
2021/12/05 03:51:33;;;;;;;0.10;0.10;;;;;;;;;;5088496;28;20035;-92
2021/12/05 03:53:59;;;;;;;0.10;0.10;;;;;;;;;;5092822;28;20115;-93
2021/12/05 03:56:24;;;;;;;0.93;0.93;;;;;;;;;;5088143;28;20536;-92
2021/12/05 03:58:50;;;;;;;0.20;0.20;;;;;;;;;;5097406;28;20026;-92
2021/12/05 04:01:16;;;;;;;0.25;0.25;;;;;;;;;;5105460;28;20085;-92
2021/12/05 04:03:43;;;;;;;0.10;0.10;;;;;;;;;;5087992;28;20064;-92
2021/12/05 04:06:10;;;;;;;0.03;0.03;;;;;;;;;;5087770;28;20077;-91
2021/12/05 04:08:35;;;;;;;0.10;0.10;;;;;;;;;;5073215;28;20028;-92
2021/12/05 04:11:03;;;;;;;0.10;0.10;;;;;;;;;;5088189;28;20039;-91
2021/12/05 04:13:29;;;;;;;0.00;0.00;;;;;;;;;;5088156;28;20024;-94
2021/12/05 04:15:55;;;;;;;0.10;0.10;;;;;;;;;;5089710;28;20070;-94
2021/12/05 04:18:20;;;;;;;5.78;1.98;;;;;;;;;;5092664;28;20497;-92
2021/12/05 04:20:46;;;;;;;0.10;0.10;;;;;;;;;;5077935;28;20019;-94
2021/12/05 04:23:12;;;;;;;0.10;0.10;;;;;;;;;;5089924;28;20078;-92
2021/12/05 04:25:38;;;;;;;0.65;0.57;;;;;;;;;;5088271;28;20036;-92
2021/12/05 04:28:05;;;;;;;0.10;0.10;;;;;;;;;;5088137;28;20524;-94
2021/12/05 04:30:31;;;;;;;0.10;0.10;;;;;;;;;;5092351;28;20057;-93
2021/12/05 04:32:57;;;;;;;0.10;0.10;;;;;;;;;;5092325;28;20373;-93
2021/12/05 04:35:22;;;;;;;0.10;0.10;;;;;;;;;;5087916;28;20027;-93
2021/12/05 04:37:48;;;;;;;0.10;0.10;;;;;;;;;;5087967;28;20028;-94
2021/12/05 04:40:14;;;;;;;0.10;0.10;;;;;;;;;;5071444;28;20065;-92
2021/12/05 04:42:39;;;;;;;0.93;0.93;;;;;;;;;;5046386;28;1272829;-92
2021/12/05 04:45:07;;;;;;;0.10;0.10;;;;;;;;;;5072220;28;20085;-92
2021/12/05 04:47:32;;;;;;;0.10;0.10;;;;;;;;;;5074103;28;20036;-92
2021/12/05 04:49:57;;;;;;;0.10;0.10;;;;;;;;;;5072574;28;20016;-94
2021/12/05 04:52:22;;;;;;;0.05;0.05;;;;;;;;;;5092653;28;20169;-94
2021/12/05 04:54:48;;;;;;;0.10;0.10;;;;;;;;;;5093143;28;20127;-93
2021/12/05 04:57:13;;;;;;;0.10;0.10;;;;;;;;;;5086931;28;20022;-93
2021/12/05 04:59:44;;;;;;;0.20;0.20;;;;;;;;;;5090483;28;20051;-93
2021/12/05 05:02:09;;;;;;;0.10;0.10;;;;;;;;;;5093470;28;20085;-92
2021/12/05 05:04:49;;;;;;;0.43;0.32;;;;;;;;;;5051244;28;20041;-93
2021/12/05 05:07:25;;;;;;;0.10;0.10;;;;;;;;;;5050711;28;20031;-92
2021/12/05 05:09:55;;;;;;;0.10;0.10;;;;;;;;;;5051717;28;20047;-94
2021/12/05 05:12:21;;;;;;;0.10;0.10;;;;;;;;;;5051326;28;20101;-92
2021/12/05 05:14:46;;;;;;;0.10;0.10;;;;;;;;;;5047637;28;20064;-93
2021/12/05 05:17:12;;;;;;;0.10;0.10;;;;;;;;;;5051175;28;20017;-93
2021/12/05 05:19:41;;;;;;;0.10;0.10;;;;;;;;;;5046318;28;20063;-92
2021/12/05 05:48:00;;;;;;;0.10;0.10;;;;;;;;;;5095583;28;20053;-93
2021/12/05 05:50:26;;;;;;;0.52;0.52;;;;;;;;;;5090935;28;20032;-93
2021/12/05 05:52:51;;;;;;;0.65;0.65;;;;;;;;;;5087586;28;20115;-93
2021/12/05 05:55:17;;;;;;;0.08;0.08;;;;;;;;;;5087513;28;20035;-92
2021/12/05 06:00:34;;;;;;;8.25;1.30;;;;;;;;;;5093777;28;20016;-92
2021/12/05 06:05:44;;;;;;;0.10;0.10;;;;;;;;;;5075157;28;20043;-91
2021/12/05 06:08:10;;;;;;;0.10;0.10;;;;;;;;;;5088149;28;20036;-90
2021/12/05 06:10:35;;;;;;;0.10;0.10;;;;;;;;;;5092200;28;20107;-92
2021/12/05 06:13:00;;;;;;;0.00;0.00;;;;;;;;;;5071222;28;20042;-93
2021/12/05 06:15:27;;;;;;;0.10;0.10;;;;;;;;;;5085517;28;20479;-93
2021/12/05 06:17:53;;;;;;;0.10;0.10;;;;;;;;;;5087057;28;20052;-93
2021/12/05 06:20:19;;;;;;;0.10;0.10;;;;;;;;;;5092371;28;20027;-94
2021/12/05 06:22:46;;;;;;;0.10;0.10;;;;;;;;;;5092247;28;20032;-92
2021/12/05 06:25:17;;;;;;;0.10;0.10;;;;;;;;;;5089294;28;20028;-91
2021/12/05 06:27:43;;;;;;;0.10;0.10;;;;;;;;;;5091095;28;20065;-93
2021/12/05 06:30:14;;;;;;;0.10;0.10;;;;;;;;;;5087162;28;20085;-91
2021/12/05 06:38:12;;;;;;;0.10;0.10;;;;;;;;;;5093314;28;20083;-93
2021/12/05 06:48:57;;;;;;;2.00;0.73;;;;;;;;;;5065250;28;20037;-93
2021/12/05 06:51:24;;;;;;;0.10;0.10;;;;;;;;;;5069321;28;20023;-93
2021/12/05 06:53:49;;;;;;;0.10;0.10;;;;;;;;;;5079580;28;20077;-91
2021/12/05 06:56:15;;;;;;;0.20;0.20;;;;;;;;;;5078292;28;20024;-92
2021/12/05 06:58:41;;;;;;;0.10;0.10;;;;;;;;;;5094121;28;20024;-92
2021/12/05 07:01:07;;;;;;;0.10;0.10;;;;;;;;;;5091083;28;20036;-92
2021/12/05 07:03:33;;;;;;;0.20;0.20;;;;;;;;;;5086214;28;20024;-92
2021/12/05 07:06:11;;;;;;;0.10;0.10;;;;;;;;;;5091070;28;20016;-91
2021/12/05 07:08:39;;;;;;;0.10;0.10;;;;;;;;;;5089913;28;20076;-93
2021/12/05 07:16:41;;;;;;;0.50;0.50;;;;;;;;;;5094081;28;20554;-91
2021/12/05 07:24:42;;;;;;;0.10;0.10;;;;;;;;;;5094379;28;20044;-93
2021/12/05 07:40:20;;;;;;;0.20;0.20;;;;;;;;;;5090977;28;20052;-94
2021/12/05 07:40:52;;;;;;;0.10;0.10;;;;;;;;;;5097249;28;20117;-93
2021/12/05 07:43:17;;;;;;;0.10;0.10;;;;;;;;;;5091078;28;20052;-94
2021/12/05 07:45:51;;;;;;;0.10;0.10;;;;;;;;;;5091563;28;20071;-92
2021/12/05 07:48:24;;;;;;;0.10;0.10;;;;;;;;;;5081172;28;20042;-93
2021/12/05 07:51:08;;;;;;;0.10;0.10;;;;;;;;;;5093791;28;20480;-94
2021/12/05 07:53:47;;;;;;;0.10;0.10;;;;;;;;;;5093164;28;20028;-91
2021/12/05 07:56:23;;;;;;;0.10;0.10;;;;;;;;;;5073724;28;20051;-93
2021/12/05 07:58:58;;;;;;;0.10;0.10;;;;;;;;;;5090226;28;20036;-94
2021/12/05 08:14:53;;;;;;;0.10;0.10;;;;;;;;;;5077063;28;20098;-93
2021/12/05 08:17:20;;;;;;;0.10;0.10;;;;;;;;;;5074828;28;20032;-94
2021/12/05 08:19:46;;;;;;;0.10;0.10;;;;;;;;;;5072142;28;20036;-92
2021/12/05 08:22:11;;;;;;;0.10;0.10;;;;;;;;;;5086711;28;20357;-91
2021/12/05 08:24:39;;;;;;;0.10;0.10;;;;;;;;;;5078958;28;20051;-93
2021/12/05 08:27:06;;;;;;;0.10;0.10;;;;;;;;;;5092177;28;20131;-92
2021/12/05 08:35:45;;;;;;;0.10;0.10;;;;;;;;;;5090595;28;20631;-92
2021/12/05 08:43:03;;;;;;;0.10;0.10;;;;;;;;;;5081761;28;20043;-93
2021/12/05 09:23:54;;;;;;;0.10;0.10;;;;;;;;;;5089296;28;20039;-94
2021/12/05 10:06:52;;;;;;;0.10;0.10;;;;;;;;;;5095002;28;20047;-92
2021/12/05 10:14:54;;;;;;;0.50;0.50;;;;;;;;;;5088011;28;20025;-92
2021/12/05 10:17:43;;;;;;;0.05;0.05;;;;;;;;;;5091262;28;20040;-90
2021/12/05 10:26:03;;;;;;;0.10;0.10;;;;;;;;;;5071693;28;20031;-91
2021/12/05 10:26:35;;;;;;;0.10;0.10;;;;;;;;;;5075247;28;20035;-93
2021/12/05 10:37:46;;;;;;;0.00;0.00;;;;;;;;;;5094992;28;20113;-94
2021/12/05 10:40:16;;;;;;;0.10;0.10;;;;;;;;;;5091620;28;20028;-93
2021/12/05 10:42:44;;;;;;;0.10;0.10;;;;;;;;;;5091632;28;20051;-92
2021/12/05 10:45:09;;;;;;;0.10;0.10;;;;;;;;;;5091967;28;20047;-92
2021/12/05 10:47:45;;;;;;;0.10;0.10;;;;;;;;;;5091478;28;20020;-93
2021/12/05 10:50:29;;;;;;;0.10;0.10;;;;;;;;;;5089631;28;20468;-93
2021/12/05 10:53:13;;;;;;;0.30;0.30;;;;;;;;;;5090261;28;20119;-93
2021/12/05 10:55:38;;;;;;;0.10;0.10;;;;;;;;;;5072800;28;20823;-92
2021/12/05 10:58:04;;;;;;;0.10;0.10;;;;;;;;;;5085117;28;20052;-92
2021/12/05 11:00:29;;;;;;;0.10;0.10;;;;;;;;;;5089244;28;20522;-91
2021/12/05 11:03:12;;;;;;;0.13;0.13;;;;;;;;;;5087756;28;20028;-92
2021/12/05 11:05:39;;;;;;;0.03;0.03;;;;;;;;;;5088570;28;20062;-93
2021/12/05 11:08:24;;;;;;;0.10;0.10;;;;;;;;;;5088835;28;20038;-92
2021/12/05 11:10:50;;;;;;;0.10;0.10;;;;;;;;;;5092836;28;20040;-92
2021/12/05 11:13:25;;;;;;;0.10;0.10;;;;;;;;;;5075210;28;20081;-93
2021/12/05 11:15:51;;;;;;;;;;;;;;;;;;5094909;28;20032;-94
2021/12/05 11:18:36;;;;;;;5.32;1.10;;;;;;;;;;5101511;28;19958;-94
2021/12/05 11:21:21;;;;;;;0.10;0.10;;;;;;;;;;5079241;28;20033;-93
2021/12/05 11:24:02;;;;;;;0.10;0.10;;;;;;;;;;5073738;28;20324;-93
2021/12/05 11:26:29;;;;;;;0.00;0.00;;;;;;;;;;5071487;28;20302;-93
2021/12/05 11:28:55;;;;;;;0.10;0.10;;;;;;;;;;5017196;28;20034;-94
2021/12/05 11:31:24;;;;;;;0.10;0.10;;;;;;;;;;5015887;28;20041;-93
2021/12/05 11:33:53;;;;;;;0.20;0.20;;;;;;;;;;5028947;28;20103;-94
2021/12/05 11:36:21;;;;;;;0.10;0.10;;;;;;;;;;5033681;28;20108;-94
2021/12/05 11:38:47;;;;;;;0.10;0.10;;;;;;;;;;5022904;28;20178;-94
2021/12/05 11:41:14;;;;;;;0.10;0.10;;;;;;;;;;5012864;28;20018;-94
2021/12/05 11:43:44;;;;;;;0.03;0.03;;;;;;;;;;5018003;28;20136;-93
2021/12/05 11:46:13;;;;;;;0.80;0.80;;;;;;;;;;5015211;28;20638;-92
2021/12/05 11:48:47;;;;;;;0.20;0.20;;;;;;;;;;5022205;28;20126;-94
2021/12/05 11:51:30;;;;;;;0.52;0.52;;;;;;;;;;5035555;28;20068;-92
2021/12/05 11:53:57;;;;;;;0.20;0.20;;;;;;;;;;5032039;28;20045;-92
2021/12/05 11:56:35;;;;;;;0.10;0.10;;;;;;;;;;5010608;28;20426;-92
2021/12/05 11:59:03;;;;;;;0.10;0.10;;;;;;;;;;5034745;28;20037;-93
2021/12/05 12:01:33;;;;;;;0.10;0.10;;;;;;;;;;5095978;28;20024;-93
2021/12/05 12:03:59;;;;;;;0.20;0.20;;;;;;;;;;5078062;28;20442;-94
2021/12/05 12:06:24;;;;;;;0.10;0.10;;;;;;;;;;5099064;28;20024;-93
2021/12/05 12:08:50;;;;;;;0.10;0.10;;;;;;;;;;5078753;28;20046;-92
2021/12/05 12:11:15;;;;;;;1.85;1.38;;;;;;;;;;5091473;28;20090;-93
2021/12/05 12:13:41;;;;;;;0.10;0.10;;;;;;;;;;5095393;28;20093;-93
2021/12/05 12:16:08;;;;;;;0.10;0.10;;;;;;;;;;5092600;28;20073;-93
2021/12/05 12:18:39;;;;;;;0.10;0.10;;;;;;;;;;5094485;28;20032;-93
2021/12/05 12:21:13;;;;;;;2.67;0.77;;;;;;;;;;5094087;28;20039;-93
2021/12/05 12:23:39;;;;;;;0.10;0.10;;;;;;;;;;5076870;28;20027;-92
2021/12/05 12:26:07;;;;;;;0.45;0.45;;;;;;;;;;5093700;28;20031;-92
2021/12/05 12:28:32;;;;;;;0.10;0.10;;;;;;;;;;5091057;28;20450;-92
2021/12/05 12:31:00;;;;;;;0.10;0.10;;;;;;;;;;5087788;28;20051;-92
2021/12/05 12:33:30;;;;;;;0.00;0.00;;;;;;;;;;5093420;28;20035;-83
2021/12/05 12:35:56;;;;;;;0.10;0.10;;;;;;;;;;5090740;28;20023;-92
2021/12/05 12:38:41;;;;;;;0.10;0.10;;;;;;;;;;5093069;28;20012;-91
2021/12/05 12:41:20;;;;;;;0.10;0.10;;;;;;;;;;5092848;28;20024;-92
2021/12/05 12:43:53;;;;;;;0.10;0.10;;;;;;;;;;5051213;28;20066;-92
2021/12/05 12:46:18;;;;;;;0.57;0.57;;;;;;;;;;5049280;28;20092;-91
2021/12/05 12:48:44;;;;;;;1.13;1.10;;;;;;;;;;5051481;28;20405;-92
2021/12/05 12:51:23;;;;;;;0.10;0.10;;;;;;;;;;5054187;28;20021;-94
2021/12/05 12:53:53;;;;;;;0.10;0.10;;;;;;;;;;5047915;28;20037;-93
2021/12/05 12:56:22;;;;;;;0.10;0.10;;;;;;;;;;5049503;28;20017;-94
2021/12/05 12:58:50;;;;;;;0.10;0.10;;;;;;;;;;5049000;28;20047;-94
2021/12/05 13:02:01;;;;;;;0.10;0.10;;;;;;;;;;5051147;28;20070;-94
2021/12/05 13:04:35;;;;;;;1.55;0.75;;;;;;;;;;5054058;28;20037;-94
2021/12/05 13:10:00;;;;;;;0.10;0.10;;;;;;;;;;5052626;28;20131;-93
2021/12/05 13:10:11;;;;;;;0.15;0.15;;;;;;;;;;5039082;28;20029;-92
2021/12/05 13:12:39;;;;;;;0.00;0.00;;;;;;;;;;5051295;28;20033;-92
2021/12/05 13:15:17;;;;;;;0.15;0.15;;;;;;;;;;5080832;28;20028;-94
2021/12/05 13:17:42;;;;;;;0.10;0.10;;;;;;;;;;5092358;28;20032;-92
2021/12/05 13:20:10;;;;;;;0.10;0.10;;;;;;;;;;5092462;28;20035;-92
2021/12/05 13:22:54;;;;;;;0.10;0.10;;;;;;;;;;5091175;28;20019;-92
2021/12/05 13:25:20;;;;;;;0.10;0.10;;;;;;;;;;5092277;28;20075;-93
2021/12/05 13:27:45;;;;;;;0.00;0.00;;;;;;;;;;5085873;28;20059;-93
2021/12/05 13:30:10;;;;;;;0.10;0.10;;;;;;;;;;5077690;28;20020;-93
2021/12/05 13:32:37;;;;;;;2.75;1.55;;;;;;;;;;5091915;28;20035;-91
2021/12/05 13:35:08;;;;;;;0.10;0.10;;;;;;;;;;5075902;28;20056;-93
2021/12/05 13:37:37;;;;;;;0.10;0.10;;;;;;;;;;5076967;28;20012;-95
2021/12/05 13:40:14;;;;;;;0.10;0.10;;;;;;;;;;5091917;28;20033;-93
2021/12/05 13:42:45;;;;;;;0.00;0.00;;;;;;;;;;5092526;28;20052;-92
2021/12/05 13:45:13;;;;;;;0.10;0.10;;;;;;;;;;5092178;28;20046;-93
2021/12/05 13:47:51;;;;;;;0.10;0.10;;;;;;;;;;5091848;28;20028;-92
2021/12/05 13:50:16;;;;;;;0.10;0.10;;;;;;;;;;5091982;28;20040;-92
2021/12/05 13:52:43;;;;;;;0.03;0.03;;;;;;;;;;5091827;28;20039;-91
2021/12/05 13:55:26;;;;;;;0.10;0.10;;;;;;;;;;5087357;28;20024;-92
2021/12/05 13:58:10;;;;;;;0.10;0.10;;;;;;;;;;5091750;28;20480;-93
2021/12/05 14:01:02;;;;;;;0.10;0.10;;;;;;;;;;5091939;28;20036;-93
2021/12/05 14:03:46;;;;;;;0.00;0.00;;;;;;;;;;5079849;28;20524;-90
2021/12/05 14:06:31;;;;;;;0.10;0.10;;;;;;;;;;5091828;28;20036;-93
2021/12/05 14:09:15;;;;;;;0.30;0.30;;;;;;;;;;5087232;28;20032;-92
2021/12/05 14:11:52;;;;;;;0.28;0.28;;;;;;;;;;5091840;28;20062;-92
2021/12/05 14:14:21;;;;;;;0.20;0.20;;;;;;;;;;5088802;28;20056;-93
2021/12/05 14:16:48;;;;;;;0.10;0.10;;;;;;;;;;5091899;28;20083;-93
2021/12/05 14:19:15;;;;;;;0.10;0.10;;;;;;;;;;5087365;28;20027;-92
2021/12/05 14:21:41;;;;;;;1.17;1.08;;;;;;;;;;5086641;28;20537;-92
2021/12/05 14:24:07;;;;;;;0.10;0.10;;;;;;;;;;5090822;28;20044;-90
2021/12/05 14:26:36;;;;;;;0.10;0.10;;;;;;;;;;5086792;28;20448;-93
2021/12/05 14:29:03;;;;;;;0.30;0.30;;;;;;;;;;5089723;28;20028;-90
2021/12/05 14:31:31;;;;;;;0.10;0.10;;;;;;;;;;5091564;28;20035;-92
2021/12/05 14:33:57;;;;;;;0.08;0.08;;;;;;;;;;5087080;28;20486;-92
2021/12/05 14:36:31;;;;;;;0.10;0.10;;;;;;;;;;5076675;28;20028;-92
2021/12/05 14:39:15;;;;;;;0.10;0.10;;;;;;;;;;5090783;28;20031;-92
2021/12/05 14:41:41;;;;;;;0.10;0.10;;;;;;;;;;5090976;28;20048;-93
2021/12/05 14:44:07;;;;;;;0.00;0.00;;;;;;;;;;5086617;28;20381;-93
2021/12/05 14:46:32;;;;;;;0.10;0.10;;;;;;;;;;5092355;28;20035;-93
2021/12/05 14:48:58;;;;;;;0.10;0.10;;;;;;;;;;5090685;28;20031;-92
2021/12/05 14:51:44;;;;;;;0.75;0.75;;;;;;;;;;5095435;28;20028;-93
2021/12/05 14:54:10;;;;;;;0.10;0.10;;;;;;;;;;5094629;28;20040;-92
2021/12/05 14:56:36;;;;;;;0.10;0.10;;;;;;;;;;5095373;28;20100;-93
2021/12/05 14:59:05;;;;;;;0.10;0.10;;;;;;;;;;5094811;28;20028;-91
2021/12/05 15:01:30;;;;;;;0.20;0.20;;;;;;;;;;5095182;28;20032;-91
2021/12/05 15:03:55;;;;;;;0.10;0.10;;;;;;;;;;5077006;28;20036;-92
2021/12/05 15:06:29;;;;;;;0.10;0.10;;;;;;;;;;5075571;28;20065;-91
2021/12/05 15:08:54;;;;;;;0.00;0.00;;;;;;;;;;5090508;28;20035;-92
2021/12/05 15:11:19;;;;;;;0.10;0.10;;;;;;;;;;5094947;28;20388;-92
2021/12/05 15:13:45;;;;;;;0.10;0.10;;;;;;;;;;5089075;28;20024;-91
2021/12/05 15:16:10;;;;;;;0.10;0.10;;;;;;;;;;5090598;28;20024;-91
2021/12/05 15:18:39;;;;;;;0.20;0.20;;;;;;;;;;5094651;28;20693;-91
2021/12/05 15:21:04;;;;;;;0.10;0.10;;;;;;;;;;5094462;28;20044;-91
2021/12/05 15:23:32;;;;;;;0.30;0.30;;;;;;;;;;5079885;28;20032;-92
2021/12/05 15:26:01;;;;;;;0.10;0.10;;;;;;;;;;5074274;28;20075;-92
2021/12/05 15:28:27;;;;;;;1.67;0.57;;;;;;;;;;5072648;28;20025;-91
2021/12/05 15:30:52;;;;;;;0.10;0.10;;;;;;;;;;5085525;28;20477;-92
2021/12/05 15:33:22;;;;;;;0.10;0.10;;;;;;;;;;5075136;28;20066;-92
2021/12/05 15:35:48;;;;;;;0.43;0.43;;;;;;;;;;5094582;28;20017;-92
2021/12/05 15:38:16;;;;;;;0.20;0.20;;;;;;;;;;5088358;28;20063;-92
2021/12/05 15:40:43;;;;;;;0.10;0.10;;;;;;;;;;5090426;28;20036;-92
2021/12/05 15:43:13;;;;;;;0.10;0.10;;;;;;;;;;5095115;28;20048;-94
2021/12/05 15:45:39;;;;;;;1.45;1.35;;;;;;;;;;5091374;28;20055;-92
2021/12/05 15:48:05;;;;;;;0.15;0.15;;;;;;;;;;5089333;28;20038;-94
2021/12/05 15:50:32;;;;;;;0.35;0.22;;;;;;;;;;5080109;28;20020;-92
2021/12/05 15:53:09;;;;;;;0.10;0.10;;;;;;;;;;5094715;28;20028;-94
2021/12/05 15:55:39;;;;;;;0.57;0.57;;;;;;;;;;5094323;28;20028;-93
2021/12/05 15:58:07;;;;;;;0.10;0.10;;;;;;;;;;5090785;28;20028;-93
2021/12/05 16:00:35;;;;;;;0.10;0.10;;;;;;;;;;5094020;28;20032;-93
2021/12/05 16:03:05;;;;;;;0.10;0.10;;;;;;;;;;5089155;28;20050;-92
2021/12/05 16:05:31;;;;;;;0.10;0.10;;;;;;;;;;5091160;28;20040;-93
2021/12/05 16:08:01;;;;;;;0.10;0.10;;;;;;;;;;5089313;28;20035;-92
2021/12/05 16:10:26;;;;;;;0.10;0.10;;;;;;;;;;5093880;28;20075;-92
2021/12/05 16:12:52;;;;;;;0.10;0.10;;;;;;;;;;5090154;28;20062;-93
2021/12/05 16:15:24;;;;;;;0.10;0.10;;;;;;;;;;5093694;28;20743;-92
2021/12/05 16:17:54;;;;;;;0.10;0.10;;;;;;;;;;5093581;28;20024;-92
2021/12/05 16:20:24;;;;;;;0.10;0.10;;;;;;;;;;5087615;28;20028;-93
2021/12/05 16:23:02;;;;;;;0.00;0.00;;;;;;;;;;5093254;28;20031;-92
2021/12/05 16:25:28;;;;;;;0.10;0.10;;;;;;;;;;5093556;28;20079;-93
2021/12/05 16:27:55;;;;;;;0.10;0.10;;;;;;;;;;5089174;28;20035;-93
2021/12/05 16:30:24;;;;;;;0.10;0.10;;;;;;;;;;5090530;28;20053;-94
2021/12/05 16:32:50;;;;;;;0.10;0.10;;;;;;;;;;5089011;28;20028;-92
2021/12/05 16:35:30;;;;;;;0.10;0.10;;;;;;;;;;5088809;28;20034;-93
2021/12/05 16:37:56;;;;;;;0.52;0.52;;;;;;;;;;5093177;28;20070;-92
2021/12/05 16:40:21;;;;;;;0.10;0.10;;;;;;;;;;5088876;28;20032;-92
2021/12/05 16:42:46;;;;;;;0.50;0.47;;;;;;;;;;5088613;28;20056;-93
2021/12/05 16:45:12;;;;;;;0.10;0.10;;;;;;;;;;5093128;28;20059;-93
2021/12/05 16:47:37;;;;;;;0.10;0.10;;;;;;;;;;5086934;28;20032;-91
2021/12/05 16:50:03;;;;;;;1.55;1.00;;;;;;;;;;5071959;28;20013;-90
2021/12/05 16:52:31;;;;;;;0.10;0.10;;;;;;;;;;5089617;28;20032;-87
2021/12/05 17:24:56;;;;;;;;;;;;;;;;;;5075118;28;20386;-53
2021/12/05 17:27:22;;;;;;;5.28;4.43;;;;;;;;;;5063233;28;19995;-53
2021/12/05 17:29:49;;;;;;;15.88;8.00;;;;;;;;;;5060684;28;20059;-53
2021/12/05 17:32:16;;;;;;;12.85;7.53;;;;;;;;;;5067974;28;20077;-55
2021/12/05 17:34:42;;;;;;;11.00;9.95;;;;;;;;;;5061093;28;20040;-53
2021/12/05 17:37:08;;;;;;;21.15;9.18;;;;;;;;;;5062761;28;20028;-61
2021/12/05 17:39:35;;;;;;;11.32;10.25;;;;;;;;;;5057832;28;20373;-65
2021/12/05 17:42:17;;;;;;;29.40;11.48;;;;;;;;;;5058932;28;20375;-66
2021/12/05 17:44:43;;;;;;;6.13;4.53;;;;;;;;;;5053329;28;20033;-65
2021/12/05 17:47:10;;;;;;;7.68;5.25;;;;;;;;;;5051455;28;20492;-64
2021/12/05 17:49:36;;;;;;;26.58;7.35;;;;;;;;;;5057276;28;20016;-65
2021/12/05 17:52:02;;;;;;;13.07;6.82;;;;;;;;;;5051649;28;20051;-66
2021/12/05 17:54:34;;;;;;;18.58;8.90;;;;;;;;;;5049498;28;20463;-62
2021/12/05 17:57:07;;;;;;;8.55;6.07;;;;;;;;;;5053522;28;20083;-62
2021/12/05 18:05:01;;;;;;;17.38;8.35;;;;;;;;;;5050695;28;20045;-65
2021/12/05 18:07:27;;;;;;;21.85;4.68;;;;;;;;;;5059028;28;20041;-65
2021/12/05 18:09:52;;;;;;;6.30;3.42;;;;;;;;;;5049618;28;20040;-63
2021/12/05 18:12:23;;;;;;;9.05;4.30;;;;;;;;;;4988823;28;96063;-65
2021/12/05 18:14:49;;;;;;;5.68;2.67;;;;;;;;;;4989345;28;20025;-63
2021/12/05 18:17:15;;;;;;;8.80;4.43;;;;;;;;;;4989628;28;20045;-64
2021/12/05 18:19:41;;;;;;;5.53;5.03;;;;;;;;;;4989054;28;20378;-64
2021/12/05 18:22:07;;;;;;;23.17;5.93;;;;;;;;;;4987557;28;20046;-67
2021/12/05 18:24:32;;;;;;;6.10;4.13;;;;;;;;;;4989262;28;20133;-67
2021/12/05 18:26:58;;;;;;;12.43;5.15;;;;;;;;;;4989220;28;20014;-68
2021/12/05 18:29:23;;;;;;;4.18;3.67;;;;;;;;;;4986950;28;20031;-64
2021/12/05 18:31:49;;;;;;;2.17;2.05;;;;;;;;;;4988151;28;20072;-67
2021/12/05 18:34:18;;;;;;;2.38;2.17;;;;;;;;;;4987808;28;20051;-68
2021/12/05 18:36:45;;;;;;;6.00;4.53;;;;;;;;;;4986871;28;20463;-64
2021/12/05 18:39:12;;;;;;;7.53;3.88;;;;;;;;;;4988974;28;20058;-61
2021/12/05 18:41:38;;;;;;;7.38;3.22;;;;;;;;;;4988726;28;20112;-61
2021/12/05 18:44:08;;;;;;;6.22;4.20;;;;;;;;;;4988632;28;20117;-62
2021/12/05 18:46:34;;;;;;;8.30;3.35;;;;;;;;;;4988910;28;20431;-61
2021/12/05 18:48:59;;;;;;;2.22;1.92;;;;;;;;;;4986769;28;20126;-64
2021/12/05 18:51:25;;;;;;;2.20;1.95;;;;;;;;;;4982551;28;20030;-64
2021/12/05 18:53:51;;;;;;;4.68;2.38;;;;;;;;;;4966128;28;20051;-64
2021/12/05 18:56:16;;;;;;;1.15;1.15;;;;;;;;;;4971573;28;20022;-64
2021/12/05 18:58:42;;;;;;;3.13;2.88;;;;;;;;;;4971644;28;20375;-64
2021/12/05 19:06:42;;;;;;;20.23;1.60;;;;;;;;;;4970115;28;20054;-65
2021/12/05 19:09:24;;;;;;;7.35;2.20;;;;;;;;;;4972976;28;20054;-66
2021/12/05 19:16:01;;;;;;;33.63;11.70;;;;;;;;;;5068583;28;20904;-65
2021/12/05 19:18:27;;;;;;;39.43;11.87;;;;;;;;;;5063982;28;20033;-66
2021/12/05 19:20:52;;;;;;;27.67;10.90;;;;;;;;;;5056348;28;20025;-52
2021/12/05 19:23:17;;;;;;;35.87;10.33;;;;;;;;;;5075468;28;20044;-56
2021/12/05 19:29:39;;;;;;;3.35;2.15;;;;;;;;;;5023902;27;74281;-53
2021/12/05 19:32:06;;;;;;;2.00;1.85;;;;;;;;;;5027996;28;73322;-55
2021/12/05 19:39:19;;;;;;;27.95;10.27;;;;;;;21.54;44.69;100993.63;5027195;27;20738;-58
2021/12/05 19:41:48;;;;;;;26.25;10.98;;;;;;;19.89;50.47;100988.13;5018642;28;20037;-59
2021/12/05 19:44:15;;;;;;;25.77;10.48;;;;;;;19.44;53.43;100994.66;5022964;28;20034;-59
2021/12/05 19:46:42;;;;;;;25.33;9.52;;;;;;;19.25;54.18;101010.84;5008980;28;20133;-58
2021/12/05 19:49:08;;;;;;;;;;;;;;;19.15;55.00;101011.50;5010745;28;20509;-58
2021/12/05 19:51:37;;;;;;;23.40;9.55;;;;;;;19.12;55.69;101019.53;5010652;28;19913;-58
2021/12/05 19:54:07;;;;;;;19.15;7.93;;;;;;;19.07;55.40;101011.94;5009896;28;20034;-58
2021/12/05 19:56:33;;;;;;;23.58;7.78;;;;;;;19.29;55.18;101022.34;5005081;28;20140;-62
2021/12/05 19:58:59;;;;;;;19.50;8.23;;;;;;;19.45;55.49;101013.16;5009515;28;20430;-59
2021/12/05 20:01:25;;;;;;;20.50;8.23;;;;;;;19.72;56.41;101013.31;5009155;28;20520;-61
2021/12/05 20:03:50;;;;;;;18.75;6.93;;;;;;;19.78;51.52;101010.63;4989814;28;20045;-57
2021/12/05 20:07:57;;;;;;;21.20;7.35;;;;;;;;;;5054757;27;20900;-59
2021/12/05 20:10:26;;;;;;;14.18;6.13;;;;;;;;;;5027565;28;20690;-59
2021/12/05 20:12:53;;;;;;;17.63;6.70;;;;;;;;;;5029604;28;20132;-55
2021/12/05 20:15:18;;;;;;;14.55;6.78;;;;;;;;;;5029104;28;20041;-60
2021/12/05 20:17:49;;;;;;;15.00;6.67;;;;;;;;;;5029115;28;20038;-60
2021/12/05 20:20:14;;;;;;;12.63;6.32;;;;;;;;;;5027791;28;90180;-59
2021/12/05 20:22:40;;;;;;;13.67;6.27;;;;;;;;;;5031722;28;20037;-60
2021/12/05 20:25:08;;;;;;;8.77;5.13;;;;;;;;;;5028631;28;20038;-60
2021/12/05 20:27:35;;;;;;;13.27;5.30;;;;;;;;;;5030622;28;20017;-60
2021/12/05 20:30:00;;;;;;;;;;;;;;;;;;5024727;28;20054;-60
2021/12/05 20:32:25;;;;;;;9.45;4.38;;;;;;;;;;5028871;28;19960;-60
2021/12/05 20:34:51;;;;;;;9.33;4.80;;;;;;;;;;5027223;28;20095;-60
2021/12/05 20:37:16;;;;;;;8.70;4.53;;;;;;;;;;5029196;28;20096;-60
2021/12/05 20:39:42;;;;;;;12.97;4.70;;;;;;;;;;5002179;28;20065;-62
2021/12/05 20:49:28;;;;;;;6.60;2.30;;;;;;;;;;5067907;28;20372;-73
2021/12/05 20:51:53;;;;;;;6.37;2.00;;;;;;;;;;5065403;28;20040;-73
2021/12/05 20:54:19;;;;;;;7.50;2.20;;;;;;;;;;5063849;28;20029;-73
2021/12/05 20:56:45;;;;;;;9.07;2.43;;;;;;;;;;5070811;28;20036;-73
2021/12/05 20:59:10;;;;;;;5.50;1.93;;;;;;;;;;5072143;28;20037;-73
2021/12/05 21:01:36;;;;;;;8.40;2.00;;;;;;;;;;5069069;28;20699;-73
2021/12/05 21:04:02;;;;;;;4.45;1.50;;;;;;;;;;5068630;28;20460;-74
2021/12/05 21:06:29;;;;;;;7.55;1.80;;;;;;;;;;5069109;28;20090;-76
2021/12/05 21:08:57;;;;;;;6.10;1.90;;;;;;;;;;5068781;28;20131;-76